sensor_id;sensor_type;location;lat;lon;timestamp;pressure;altitude;pressure_sealevel;temperature;humidity
65897;BME280;52677;50.898;10.854;2023-02-13T00:00:55;100670.16;;;3.62;100.00
65897;BME280;52677;50.898;10.854;2023-02-13T00:02:56;100660.88;;;3.58;100.00
65897;BME280;52677;50.898;10.854;2023-02-13T00:04:56;100663.34;;;3.59;100.00
65897;BME280;52677;50.898;10.854;2023-02-13T00:06:56;100663.09;;;3.56;100.00
65897;BME280;52677;50.898;10.854;2023-02-13T00:08:56;100648.84;;;3.54;100.00
65897;BME280;52677;50.898;10.854;2023-02-13T00:10:57;100653.53;;;3.48;100.00
65897;BME280;52677;50.898;10.854;2023-02-13T00:12:57;100655.44;;;3.48;100.00
65897;BME280;52677;50.898;10.854;2023-02-13T00:14:58;100657.63;;;3.46;100.00
65897;BME280;52677;50.898;10.854;2023-02-13T00:16:59;100656.56;;;3.42;100.00
65897;BME280;52677;50.898;10.854;2023-02-13T00:18:59;100649.97;;;3.43;100.00
65897;BME280;52677;50.898;10.854;2023-02-13T00:21:02;100654.09;;;3.40;100.00
65897;BME280;52677;50.898;10.854;2023-02-13T00:23:03;100654.34;;;3.38;100.00
65897;BME280;52677;50.898;10.854;2023-02-13T00:25:04;100658.47;;;3.36;100.00
65897;BME280;52677;50.898;10.854;2023-02-13T00:27:05;100659.31;;;3.31;100.00
65897;BME280;52677;50.898;10.854;2023-02-13T00:29:05;100648.91;;;3.28;100.00
65897;BME280;52677;50.898;10.854;2023-02-13T00:31:08;100648.38;;;3.31;100.00
65897;BME280;52677;50.898;10.854;2023-02-13T00:33:09;100646.47;;;3.27;100.00
65897;BME280;52677;50.898;10.854;2023-02-13T00:35:10;100646.75;;;3.25;100.00
65897;BME280;52677;50.898;10.854;2023-02-13T00:37:10;100642.09;;;3.26;100.00
65897;BME280;52677;50.898;10.854;2023-02-13T00:39:11;100652.47;;;3.29;100.00
65897;BME280;52677;50.898;10.854;2023-02-13T00:41:12;100642.34;;;3.29;100.00
65897;BME280;52677;50.898;10.854;2023-02-13T00:43:13;100651.66;;;3.33;100.00
65897;BME280;52677;50.898;10.854;2023-02-13T00:45:13;100655.72;;;3.31;100.00
65897;BME280;52677;50.898;10.854;2023-02-13T00:47:13;100654.38;;;3.28;100.00
65897;BME280;52677;50.898;10.854;2023-02-13T00:49:14;100653.56;;;3.28;100.00
65897;BME280;52677;50.898;10.854;2023-02-13T00:51:14;100660.69;;;3.24;100.00
65897;BME280;52677;50.898;10.854;2023-02-13T00:53:14;100653.59;;;3.23;100.00
65897;BME280;52677;50.898;10.854;2023-02-13T00:55:15;100653.84;;;3.21;100.00
65897;BME280;52677;50.898;10.854;2023-02-13T00:57:15;100654.41;;;3.18;100.00
65897;BME280;52677;50.898;10.854;2023-02-13T00:59:15;100648.69;;;3.15;100.00
65897;BME280;52677;50.898;10.854;2023-02-13T01:01:16;100651.66;;;3.13;100.00
65897;BME280;52677;50.898;10.854;2023-02-13T01:03:17;100656.03;;;3.14;100.00
65897;BME280;52677;50.898;10.854;2023-02-13T01:05:18;100651.41;;;3.15;100.00
65897;BME280;52677;50.898;10.854;2023-02-13T01:07:18;100651.94;;;3.12;100.00
65897;BME280;52677;50.898;10.854;2023-02-13T01:09:19;100642.38;;;3.04;100.00
65897;BME280;52677;50.898;10.854;2023-02-13T01:11:19;100661.53;;;3.09;100.00
65897;BME280;52677;50.898;10.854;2023-02-13T01:13:19;100659.63;;;3.04;100.00
65897;BME280;52677;50.898;10.854;2023-02-13T01:15:20;100664.25;;;3.04;100.00
65897;BME280;52677;50.898;10.854;2023-02-13T01:17:20;100655.53;;;3.02;100.00
65897;BME280;52677;50.898;10.854;2023-02-13T01:19:20;100653.59;;;3.02;100.00
65897;BME280;52677;50.898;10.854;2023-02-13T01:21:21;100656.06;;;3.04;100.00
65897;BME280;52677;50.898;10.854;2023-02-13T01:23:25;100662.91;;;3.06;100.00
65897;BME280;52677;50.898;10.854;2023-02-13T01:25:28;100667.81;;;3.09;100.00
65897;BME280;52677;50.898;10.854;2023-02-13T01:27:28;100662.34;;;3.09;100.00
65897;BME280;52677;50.898;10.854;2023-02-13T01:29:29;100671.38;;;3.15;100.00
65897;BME280;52677;50.898;10.854;2023-02-13T01:31:29;100664.28;;;3.09;100.00
65897;BME280;52677;50.898;10.854;2023-02-13T01:33:30;100673.28;;;3.04;100.00
65897;BME280;52677;50.898;10.854;2023-02-13T01:35:30;100664.00;;;3.00;100.00
65897;BME280;52677;50.898;10.854;2023-02-13T01:37:30;100670.81;;;2.98;100.00
65897;BME280;52677;50.898;10.854;2023-02-13T01:39:31;100662.91;;;2.96;100.00
65897;BME280;52677;50.898;10.854;2023-02-13T01:41:31;100662.63;;;2.93;100.00
65897;BME280;52677;50.898;10.854;2023-02-13T01:48:32;100656.63;;;2.86;100.00
65897;BME280;52677;50.898;10.854;2023-02-13T01:50:43;100663.19;;;2.85;100.00
65897;BME280;52677;50.898;10.854;2023-02-13T01:52:46;100663.75;;;2.81;100.00
65897;BME280;52677;50.898;10.854;2023-02-13T01:54:48;100656.34;;;2.77;100.00
65897;BME280;52677;50.898;10.854;2023-02-13T01:56:53;100665.38;;;2.77;100.00
65897;BME280;52677;50.898;10.854;2023-02-13T01:58:59;100661.81;;;2.77;100.00
65897;BME280;52677;50.898;10.854;2023-02-13T02:01:01;100665.38;;;2.77;100.00
65897;BME280;52677;50.898;10.854;2023-02-13T02:03:16;100663.44;;;2.73;100.00
65897;BME280;52677;50.898;10.854;2023-02-13T02:05:19;100670.00;;;2.72;100.00
65897;BME280;52677;50.898;10.854;2023-02-13T02:07:23;100663.19;;;2.69;100.00
65897;BME280;52677;50.898;10.854;2023-02-13T02:09:28;100668.94;;;2.68;100.00
65897;BME280;52677;50.898;10.854;2023-02-13T02:11:50;100671.38;;;2.64;100.00
65897;BME280;52677;50.898;10.854;2023-02-13T02:13:52;100661.00;;;2.61;100.00
65897;BME280;52677;50.898;10.854;2023-02-13T02:15:53;100664.81;;;2.60;100.00
65897;BME280;52677;50.898;10.854;2023-02-13T02:17:53;100656.34;;;2.62;100.00
65897;BME280;52677;50.898;10.854;2023-02-13T02:24:36;100665.63;;;2.61;100.00
65897;BME280;52677;50.898;10.854;2023-02-13T02:29:23;100660.16;;;2.56;100.00
65897;BME280;52677;50.898;10.854;2023-02-13T02:38:20;100655.53;;;2.51;100.00
65897;BME280;52677;50.898;10.854;2023-02-13T02:40:27;100663.72;;;2.51;100.00
65897;BME280;52677;50.898;10.854;2023-02-13T02:42:59;100652.25;;;2.49;100.00
65897;BME280;52677;50.898;10.854;2023-02-13T02:47:26;100654.13;;;2.43;100.00
65897;BME280;52677;50.898;10.854;2023-02-13T02:49:55;100644.59;;;2.41;100.00
65897;BME280;52677;50.898;10.854;2023-02-13T02:54:46;100644.31;;;2.42;100.00
65897;BME280;52677;50.898;10.854;2023-02-13T02:57:20;100643.50;;;2.42;100.00
65897;BME280;52677;50.898;10.854;2023-02-13T02:59:23;100642.41;;;2.43;100.00
65897;BME280;52677;50.898;10.854;2023-02-13T03:01:57;100641.28;;;2.39;100.00
65897;BME280;52677;50.898;10.854;2023-02-13T03:04:25;100642.38;;;2.38;100.00
65897;BME280;52677;50.898;10.854;2023-02-13T03:06:55;100629.56;;;2.43;100.00
65897;BME280;52677;50.898;10.854;2023-02-13T03:08:59;100635.84;;;2.44;100.00
65897;BME280;52677;50.898;10.854;2023-02-13T03:11:20;100638.28;;;2.45;100.00
65897;BME280;52677;50.898;10.854;2023-02-13T03:13:43;100630.09;;;2.45;100.00
65897;BME280;52677;50.898;10.854;2023-02-13T03:15:46;100635.56;;;2.50;100.00
65897;BME280;52677;50.898;10.854;2023-02-13T03:18:07;100634.75;;;2.50;100.00
65897;BME280;52677;50.898;10.854;2023-02-13T03:20:41;100629.00;;;2.51;100.00
65897;BME280;52677;50.898;10.854;2023-02-13T03:33:03;100635.03;;;2.48;100.00
65897;BME280;52677;50.898;10.854;2023-02-13T03:35:21;100642.94;;;2.50;100.00
65897;BME280;52677;50.898;10.854;2023-02-13T03:37:45;100641.84;;;2.46;100.00
65897;BME280;52677;50.898;10.854;2023-02-13T03:42:11;100640.47;;;2.43;100.00
65897;BME280;52677;50.898;10.854;2023-02-13T03:46:39;100635.03;;;2.48;100.00
65897;BME280;52677;50.898;10.854;2023-02-13T03:48:42;100637.75;;;2.43;100.00
65897;BME280;52677;50.898;10.854;2023-02-13T03:51:04;100632.28;;;2.43;100.00
65897;BME280;52677;50.898;10.854;2023-02-13T03:53:11;100638.84;;;2.42;100.00
65897;BME280;52677;50.898;10.854;2023-02-13T03:55:19;100633.38;;;2.42;100.00
65897;BME280;52677;50.898;10.854;2023-02-13T03:57:40;100632.00;;;2.45;100.00
65897;BME280;52677;50.898;10.854;2023-02-13T04:00:02;100633.09;;;2.44;100.00
65897;BME280;52677;50.898;10.854;2023-02-13T04:02:19;100641.84;;;2.46;100.00
65897;BME280;52677;50.898;10.854;2023-02-13T04:04:57;100643.75;;;2.45;100.00
65897;BME280;52677;50.898;10.854;2023-02-13T04:07:02;100640.19;;;2.45;100.00
65897;BME280;52677;50.898;10.854;2023-02-13T04:09:04;100642.41;;;2.43;100.00
65897;BME280;52677;50.898;10.854;2023-02-13T04:11:12;100635.81;;;2.39;100.00
65897;BME280;52677;50.898;10.854;2023-02-13T04:13:18;100634.19;;;2.33;100.00
65897;BME280;52677;50.898;10.854;2023-02-13T04:17:29;100628.16;;;2.31;100.00
65897;BME280;52677;50.898;10.854;2023-02-13T04:19:32;100632.53;;;2.32;100.00
65897;BME280;52677;50.898;10.854;2023-02-13T04:21:37;100632.28;;;2.33;100.00
65897;BME280;52677;50.898;10.854;2023-02-13T04:23:39;100636.94;;;2.33;100.00
65897;BME280;52677;50.898;10.854;2023-02-13T04:25:43;100634.44;;;2.31;100.00
65897;BME280;52677;50.898;10.854;2023-02-13T04:27:44;100638.56;;;2.34;100.00
65897;BME280;52677;50.898;10.854;2023-02-13T04:29:45;100628.44;;;2.34;100.00
65897;BME280;52677;50.898;10.854;2023-02-13T04:31:45;100633.91;;;2.34;100.00
65897;BME280;52677;50.898;10.854;2023-02-13T04:33:45;100624.59;;;2.30;100.00
65897;BME280;52677;50.898;10.854;2023-02-13T04:35:46;100626.78;;;2.23;100.00
65897;BME280;52677;50.898;10.854;2023-02-13T04:37:46;100622.41;;;2.17;100.00
65897;BME280;52677;50.898;10.854;2023-02-13T04:39:46;100617.50;;;2.09;100.00
65897;BME280;52677;50.898;10.854;2023-02-13T04:41:47;100633.28;;;2.07;100.00
65897;BME280;52677;50.898;10.854;2023-02-13T04:43:47;100626.47;;;1.99;100.00
65897;BME280;52677;50.898;10.854;2023-02-13T04:45:48;100625.34;;;1.90;100.00
65897;BME280;52677;50.898;10.854;2023-02-13T04:47:50;100619.88;;;1.85;100.00
65897;BME280;52677;50.898;10.854;2023-02-13T04:49:51;100621.22;;;1.77;100.00
65897;BME280;52677;50.898;10.854;2023-02-13T04:51:51;100623.91;;;1.72;100.00
65897;BME280;52677;50.898;10.854;2023-02-13T04:53:51;100613.81;;;1.67;100.00
65897;BME280;52677;50.898;10.854;2023-02-13T04:55:52;100626.06;;;1.65;100.00
65897;BME280;52677;50.898;10.854;2023-02-13T04:57:54;100628.50;;;1.61;100.00
65897;BME280;52677;50.898;10.854;2023-02-13T04:59:54;100615.94;;;1.55;100.00
65897;BME280;52677;50.898;10.854;2023-02-13T05:01:54;100615.94;;;1.50;100.00
65897;BME280;52677;50.898;10.854;2023-02-13T05:03:55;100611.25;;;1.46;100.00
65897;BME280;52677;50.898;10.854;2023-02-13T05:05:55;100608.50;;;1.40;100.00
65897;BME280;52677;50.898;10.854;2023-02-13T05:07:55;100609.84;;;1.38;100.00
65897;BME280;52677;50.898;10.854;2023-02-13T05:09:56;100614.75;;;1.36;100.00
65897;BME280;52677;50.898;10.854;2023-02-13T05:11:56;100616.63;;;1.25;100.00
65897;BME280;52677;50.898;10.854;2023-02-13T05:13:56;100622.31;;;1.24;100.00
65897;BME280;52677;50.898;10.854;2023-02-13T05:15:57;100622.00;;;1.15;100.00
65897;BME280;52677;50.898;10.854;2023-02-13T05:17:57;100618.69;;;1.08;100.00
65897;BME280;52677;50.898;10.854;2023-02-13T05:19:58;100621.91;;;1.00;100.00
65897;BME280;52677;50.898;10.854;2023-02-13T05:21:59;100616.69;;;0.93;100.00
65897;BME280;52677;50.898;10.854;2023-02-13T05:24:17;100625.63;;;0.83;100.00
65897;BME280;52677;50.898;10.854;2023-02-13T05:26:18;100630.22;;;0.78;100.00
65897;BME280;52677;50.898;10.854;2023-02-13T05:28:18;100625.84;;;0.82;100.00
65897;BME280;52677;50.898;10.854;2023-02-13T05:30:37;100632.06;;;0.72;100.00
65897;BME280;52677;50.898;10.854;2023-02-13T05:32:39;100625.72;;;0.62;100.00
65897;BME280;52677;50.898;10.854;2023-02-13T05:34:41;100625.72;;;0.62;100.00
65897;BME280;52677;50.898;10.854;2023-02-13T05:36:42;100622.72;;;0.63;100.00
65897;BME280;52677;50.898;10.854;2023-02-13T05:38:42;100622.59;;;0.48;100.00
65897;BME280;52677;50.898;10.854;2023-02-13T05:40:42;100623.59;;;0.37;100.00
65897;BME280;52677;50.898;10.854;2023-02-13T05:42:43;100615.97;;;0.39;100.00
65897;BME280;52677;50.898;10.854;2023-02-13T05:44:43;100618.50;;;0.45;100.00
65897;BME280;52677;50.898;10.854;2023-02-13T05:46:44;100624.97;;;0.39;100.00
65897;BME280;52677;50.898;10.854;2023-02-13T05:48:44;100611.81;;;0.31;100.00
65897;BME280;52677;50.898;10.854;2023-02-13T05:50:45;100617.75;;;0.23;100.00
65897;BME280;52677;50.898;10.854;2023-02-13T05:52:47;100624.22;;;0.17;100.00
65897;BME280;52677;50.898;10.854;2023-02-13T05:54:47;100631.25;;;0.13;100.00
65897;BME280;52677;50.898;10.854;2023-02-13T05:56:48;100630.16;;;0.14;100.00
65897;BME280;52677;50.898;10.854;2023-02-13T05:58:52;100625.53;;;0.14;100.00
65897;BME280;52677;50.898;10.854;2023-02-13T06:00:55;100623.66;;;0.15;100.00
65897;BME280;52677;50.898;10.854;2023-02-13T06:02:56;100635.81;;;0.07;100.00
65897;BME280;52677;50.898;10.854;2023-02-13T06:04:57;100634.16;;;0.06;100.00
65897;BME280;52677;50.898;10.854;2023-02-13T06:06:57;100641.47;;;0.01;100.00
65897;BME280;52677;50.898;10.854;2023-02-13T06:08:57;100642.78;;;-0.02;100.00
65897;BME280;52677;50.898;10.854;2023-02-13T06:10:58;100640.06;;;-0.02;100.00
65897;BME280;52677;50.898;10.854;2023-02-13T06:12:58;100631.59;;;-0.06;100.00
65897;BME280;52677;50.898;10.854;2023-02-13T06:14:58;100629.91;;;-0.12;100.00
65897;BME280;52677;50.898;10.854;2023-02-13T06:17:00;100638.88;;;-0.11;100.00
65897;BME280;52677;50.898;10.854;2023-02-13T06:19:00;100633.97;;;-0.14;100.00
65897;BME280;52677;50.898;10.854;2023-02-13T06:21:01;100640.22;;;-0.14;100.00
65897;BME280;52677;50.898;10.854;2023-02-13T06:23:02;100644.28;;;-0.16;100.00
65897;BME280;52677;50.898;10.854;2023-02-13T06:25:02;100639.06;;;-0.18;100.00
65897;BME280;52677;50.898;10.854;2023-02-13T06:27:03;100645.34;;;-0.17;100.00
65897;BME280;52677;50.898;10.854;2023-02-13T06:29:03;100643.44;;;-0.17;100.00
65897;BME280;52677;50.898;10.854;2023-02-13T06:31:04;100641.31;;;-0.15;100.00
65897;BME280;52677;50.898;10.854;2023-02-13T06:33:04;100642.13;;;-0.14;100.00
65897;BME280;52677;50.898;10.854;2023-02-13T06:35:05;100647.31;;;-0.13;100.00
65897;BME280;52677;50.898;10.854;2023-02-13T06:37:06;100642.44;;;-0.11;100.00
65897;BME280;52677;50.898;10.854;2023-02-13T06:39:08;100648.44;;;-0.09;100.00
65897;BME280;52677;50.898;10.854;2023-02-13T06:41:08;100648.38;;;-0.14;100.00
65897;BME280;52677;50.898;10.854;2023-02-13T06:43:09;100657.63;;;-0.15;100.00
65897;BME280;52677;50.898;10.854;2023-02-13T06:45:10;100652.69;;;-0.18;100.00
65897;BME280;52677;50.898;10.854;2023-02-13T06:47:11;100655.66;;;-0.19;100.00
65897;BME280;52677;50.898;10.854;2023-02-13T06:49:11;100652.13;;;-0.20;100.00
65897;BME280;52677;50.898;10.854;2023-02-13T06:51:11;100660.03;;;-0.18;100.00
65897;BME280;52677;50.898;10.854;2023-02-13T06:53:12;100660.28;;;-0.20;100.00
65897;BME280;52677;50.898;10.854;2023-02-13T06:55:12;100664.16;;;-0.16;100.00
65897;BME280;52677;50.898;10.854;2023-02-13T06:57:14;100668.25;;;-0.13;100.00
65897;BME280;52677;50.898;10.854;2023-02-13T06:59:14;100666.91;;;-0.11;100.00
65897;BME280;52677;50.898;10.854;2023-02-13T07:01:14;100672.44;;;-0.06;100.00
65897;BME280;52677;50.898;10.854;2023-02-13T07:03:15;100668.38;;;-0.03;100.00
65897;BME280;52677;50.898;10.854;2023-02-13T07:05:16;100676.34;;;0.04;100.00
65897;BME280;52677;50.898;10.854;2023-02-13T07:07:16;100673.34;;;0.05;100.00
65897;BME280;52677;50.898;10.854;2023-02-13T07:09:17;100674.19;;;0.06;100.00
65897;BME280;52677;50.898;10.854;2023-02-13T07:11:22;100674.75;;;0.08;100.00
65897;BME280;52677;50.898;10.854;2023-02-13T07:13:23;100679.44;;;0.12;100.00
65897;BME280;52677;50.898;10.854;2023-02-13T07:15:23;100673.16;;;0.12;100.00
65897;BME280;52677;50.898;10.854;2023-02-13T07:17:24;100680.00;;;0.14;100.00
65897;BME280;52677;50.898;10.854;2023-02-13T07:19:25;100675.63;;;0.13;100.00
65897;BME280;52677;50.898;10.854;2023-02-13T07:21:26;100682.16;;;0.12;100.00
65897;BME280;52677;50.898;10.854;2023-02-13T07:23:26;100681.91;;;0.14;100.00
65897;BME280;52677;50.898;10.854;2023-02-13T07:25:27;100690.88;;;0.14;100.00
65897;BME280;52677;50.898;10.854;2023-02-13T07:27:28;100684.13;;;0.17;100.00
65897;BME280;52677;50.898;10.854;2023-02-13T07:29:29;100677.81;;;0.16;100.00
65897;BME280;52677;50.898;10.854;2023-02-13T07:31:29;100672.97;;;0.18;100.00
65897;BME280;52677;50.898;10.854;2023-02-13T07:33:31;100673.00;;;0.23;100.00
65897;BME280;52677;50.898;10.854;2023-02-13T07:35:31;100679.06;;;0.31;100.00
65897;BME280;52677;50.898;10.854;2023-02-13T07:37:32;100685.41;;;0.36;100.00
65897;BME280;52677;50.898;10.854;2023-02-13T07:39:32;100678.34;;;0.40;100.00
65897;BME280;52677;50.898;10.854;2023-02-13T07:41:32;100677.84;;;0.43;100.00
65897;BME280;52677;50.898;10.854;2023-02-13T07:43:33;100674.06;;;0.44;100.00
65897;BME280;52677;50.898;10.854;2023-02-13T07:45:33;100673.22;;;0.44;100.00
65897;BME280;52677;50.898;10.854;2023-02-13T07:47:33;100682.50;;;0.48;100.00
65897;BME280;52677;50.898;10.854;2023-02-13T07:49:34;100677.38;;;0.51;100.00
65897;BME280;52677;50.898;10.854;2023-02-13T07:51:36;100680.97;;;0.57;100.00
65897;BME280;52677;50.898;10.854;2023-02-13T07:53:36;100681.28;;;0.61;100.00
65897;BME280;52677;50.898;10.854;2023-02-13T07:55:36;100675.31;;;0.64;100.00
65897;BME280;52677;50.898;10.854;2023-02-13T07:57:38;100671.22;;;0.66;100.00
65897;BME280;52677;50.898;10.854;2023-02-13T07:59:38;100677.06;;;0.75;100.00
65897;BME280;52677;50.898;10.854;2023-02-13T08:01:39;100672.72;;;0.79;100.00
65897;BME280;52677;50.898;10.854;2023-02-13T08:03:39;100677.13;;;0.85;100.00
65897;BME280;52677;50.898;10.854;2023-02-13T08:05:40;100671.97;;;0.89;100.00
65897;BME280;52677;50.898;10.854;2023-02-13T08:07:40;100667.66;;;0.93;100.00
65897;BME280;52677;50.898;10.854;2023-02-13T08:09:43;100677.75;;;0.97;100.00
65897;BME280;52677;50.898;10.854;2023-02-13T08:12:02;100676.16;;;1.01;100.00
65897;BME280;52677;50.898;10.854;2023-02-13T08:14:04;100671.81;;;1.05;100.00
65897;BME280;52677;50.898;10.854;2023-02-13T08:16:04;100677.88;;;1.12;100.00
65897;BME280;52677;50.898;10.854;2023-02-13T08:18:04;100685.84;;;1.19;100.00
65897;BME280;52677;50.898;10.854;2023-02-13T08:20:06;100681.75;;;1.22;100.00
65897;BME280;52677;50.898;10.854;2023-02-13T08:22:08;100673.88;;;1.25;100.00
65897;BME280;52677;50.898;10.854;2023-02-13T08:24:08;100666.81;;;1.29;100.00
65897;BME280;52677;50.898;10.854;2023-02-13T08:26:09;100671.72;;;1.32;100.00
65897;BME280;52677;50.898;10.854;2023-02-13T08:28:10;100668.75;;;1.34;100.00
65897;BME280;52677;50.898;10.854;2023-02-13T08:30:11;100674.50;;;1.37;100.00
65897;BME280;52677;50.898;10.854;2023-02-13T08:32:12;100684.03;;;1.40;100.00
65897;BME280;52677;50.898;10.854;2023-02-13T08:34:12;100673.44;;;1.44;100.00
65897;BME280;52677;50.898;10.854;2023-02-13T08:36:12;100685.47;;;1.48;100.00
65897;BME280;52677;50.898;10.854;2023-02-13T08:38:13;100671.59;;;1.49;100.00
65897;BME280;52677;50.898;10.854;2023-02-13T08:40:13;100673.72;;;1.47;100.00
65897;BME280;52677;50.898;10.854;2023-02-13T08:42:14;100681.41;;;1.55;100.00
65897;BME280;52677;50.898;10.854;2023-02-13T08:44:14;100684.19;;;1.65;100.00
65897;BME280;52677;50.898;10.854;2023-02-13T08:46:16;100679.84;;;1.69;100.00
65897;BME280;52677;50.898;10.854;2023-02-13T08:48:16;100678.22;;;1.74;100.00
65897;BME280;52677;50.898;10.854;2023-02-13T08:50:16;100690.00;;;1.79;100.00
65897;BME280;52677;50.898;10.854;2023-02-13T08:52:17;100680.75;;;1.85;100.00
65897;BME280;52677;50.898;10.854;2023-02-13T08:54:17;100687.09;;;2.06;100.00
65897;BME280;52677;50.898;10.854;2023-02-13T08:56:17;100686.03;;;2.12;100.00
65897;BME280;52677;50.898;10.854;2023-02-13T08:58:18;100687.16;;;2.16;100.00
65897;BME280;52677;50.898;10.854;2023-02-13T09:00:18;100685.19;;;2.12;100.00
65897;BME280;52677;50.898;10.854;2023-02-13T09:02:19;100686.56;;;2.14;100.00
65897;BME280;52677;50.898;10.854;2023-02-13T09:04:19;100683.56;;;2.11;100.00
65897;BME280;52677;50.898;10.854;2023-02-13T09:06:20;100699.41;;;2.14;100.00
65897;BME280;52677;50.898;10.854;2023-02-13T09:08:20;100697.22;;;2.11;100.00
65897;BME280;52677;50.898;10.854;2023-02-13T09:10:21;100692.56;;;2.06;100.00
65897;BME280;52677;50.898;10.854;2023-02-13T09:12:21;100691.16;;;1.98;100.00
65897;BME280;52677;50.898;10.854;2023-02-13T09:14:22;100690.09;;;2.00;100.00
65897;BME280;52677;50.898;10.854;2023-02-13T09:16:22;100697.47;;;2.04;100.00
65897;BME280;52677;50.898;10.854;2023-02-13T09:18:23;100693.94;;;2.09;100.00
65897;BME280;52677;50.898;10.854;2023-02-13T09:20:23;100689.31;;;2.14;100.00
65897;BME280;52677;50.898;10.854;2023-02-13T09:22:23;100690.44;;;2.23;100.00
65897;BME280;52677;50.898;10.854;2023-02-13T09:24:24;100681.44;;;2.33;100.00
65897;BME280;52677;50.898;10.854;2023-02-13T09:26:25;100692.13;;;2.45;100.00
65897;BME280;52677;50.898;10.854;2023-02-13T09:28:25;100685.28;;;2.47;100.00
65897;BME280;52677;50.898;10.854;2023-02-13T09:30:25;100691.88;;;2.51;100.00
65897;BME280;52677;50.898;10.854;2023-02-13T09:32:26;100691.31;;;2.49;100.00
65897;BME280;52677;50.898;10.854;2023-02-13T09:34:27;100692.13;;;2.50;100.00
65897;BME280;52677;50.898;10.854;2023-02-13T09:36:27;100698.94;;;2.47;100.00
65897;BME280;52677;50.898;10.854;2023-02-13T09:38:27;100690.47;;;2.44;100.00
65897;BME280;52677;50.898;10.854;2023-02-13T09:40:35;100688.56;;;2.44;100.00
65897;BME280;52677;50.898;10.854;2023-02-13T09:42:37;100684.75;;;2.45;100.00
65897;BME280;52677;50.898;10.854;2023-02-13T09:44:40;100686.09;;;2.48;100.00
65897;BME280;52677;50.898;10.854;2023-02-13T09:46:43;100692.13;;;2.55;100.00
65897;BME280;52677;50.898;10.854;2023-02-13T09:48:47;100700.91;;;2.57;100.00
65897;BME280;52677;50.898;10.854;2023-02-13T09:50:49;100694.88;;;2.60;100.00
65897;BME280;52677;50.898;10.854;2023-02-13T09:52:51;100700.88;;;2.62;100.00
65897;BME280;52677;50.898;10.854;2023-02-13T09:54:53;100700.91;;;2.67;100.00
65897;BME280;52677;50.898;10.854;2023-02-13T09:56:57;100697.34;;;2.67;100.00
65897;BME280;52677;50.898;10.854;2023-02-13T09:59:08;100702.28;;;2.70;100.00
65897;BME280;52677;50.898;10.854;2023-02-13T10:01:38;100695.97;;;2.69;100.00
65897;BME280;52677;50.898;10.854;2023-02-13T10:03:44;100708.00;;;2.68;100.00
65897;BME280;52677;50.898;10.854;2023-02-13T10:08:28;100710.47;;;2.70;100.00
65897;BME280;52677;50.898;10.854;2023-02-13T10:13:02;100704.72;;;2.71;100.00
65897;BME280;52677;50.898;10.854;2023-02-13T10:17:30;100708.28;;;2.77;100.00
65897;BME280;52677;50.898;10.854;2023-02-13T10:19:46;100710.75;;;2.84;100.00
65897;BME280;52677;50.898;10.854;2023-02-13T10:21:57;100712.66;;;2.88;100.00
65897;BME280;52677;50.898;10.854;2023-02-13T10:24:06;100714.56;;;2.98;100.00
65897;BME280;52677;50.898;10.854;2023-02-13T10:28:43;100712.94;;;3.12;100.00
65897;BME280;52677;50.898;10.854;2023-02-13T10:30:51;100709.13;;;3.08;100.00
65897;BME280;52677;50.898;10.854;2023-02-13T10:35:27;100702.56;;;3.09;100.00
65897;BME280;52677;50.898;10.854;2023-02-13T10:37:28;100702.53;;;3.14;100.00
65897;BME280;52677;50.898;10.854;2023-02-13T10:39:30;100706.66;;;3.17;100.00
65897;BME280;52677;50.898;10.854;2023-02-13T10:44:00;100699.28;;;3.17;100.00
65897;BME280;52677;50.898;10.854;2023-02-13T10:53:16;100690.78;;;3.24;100.00
65897;BME280;52677;50.898;10.854;2023-02-13T11:02:25;100692.41;;;3.40;100.00
65897;BME280;52677;50.898;10.854;2023-02-13T11:04:28;100683.63;;;3.38;100.00
65897;BME280;52677;50.898;10.854;2023-02-13T11:06:29;100679.78;;;3.44;100.00
65897;BME280;52677;50.898;10.854;2023-02-13T11:08:33;100683.91;;;3.42;100.00
65897;BME280;52677;50.898;10.854;2023-02-13T11:10:34;100674.31;;;3.39;100.00
65897;BME280;52677;50.898;10.854;2023-02-13T11:12:34;100671.88;;;3.43;100.00
65897;BME280;52677;50.898;10.854;2023-02-13T11:14:37;100675.19;;;3.40;100.00
65897;BME280;52677;50.898;10.854;2023-02-13T11:16:38;100674.31;;;3.39;100.00
65897;BME280;52677;50.898;10.854;2023-02-13T11:18:40;100669.94;;;3.38;100.00
65897;BME280;52677;50.898;10.854;2023-02-13T11:20:44;100662.84;;;3.42;100.00
65897;BME280;52677;50.898;10.854;2023-02-13T11:22:47;100659.00;;;3.43;100.00
65897;BME280;52677;50.898;10.854;2023-02-13T11:27:23;100664.19;;;3.45;100.00
65897;BME280;52677;50.898;10.854;2023-02-13T11:29:33;100657.63;;;3.51;100.00
65897;BME280;52677;50.898;10.854;2023-02-13T11:31:35;100655.41;;;3.53;100.00
65897;BME280;52677;50.898;10.854;2023-02-13T11:33:36;100671.84;;;3.58;100.00
65897;BME280;52677;50.898;10.854;2023-02-13T11:35:36;100661.16;;;3.56;100.00
65897;BME280;52677;50.898;10.854;2023-02-13T11:37:37;100658.97;;;3.58;100.00
65897;BME280;52677;50.898;10.854;2023-02-13T11:39:40;100653.19;;;3.65;100.00
65897;BME280;52677;50.898;10.854;2023-02-13T11:41:43;100658.09;;;3.68;100.00
65897;BME280;52677;50.898;10.854;2023-02-13T11:43:49;100656.19;;;3.74;100.00
65897;BME280;52677;50.898;10.854;2023-02-13T11:48:08;100651.81;;;3.67;100.00
65897;BME280;52677;50.898;10.854;2023-02-13T11:52:24;100645.47;;;3.77;100.00